sensor_id;sensor_type;location;lat;lon;timestamp;temperature;humidity
12845;DHT22;68700;48.534;9.196;2023-05-20T00:00:30;11.10;1.00
12845;DHT22;68700;48.534;9.196;2023-05-20T00:03:52;11.10;1.00
12845;DHT22;68700;48.534;9.196;2023-05-20T00:07:15;11.10;1.00
12845;DHT22;68700;48.534;9.196;2023-05-20T00:10:37;11.10;8.80
12845;DHT22;68700;48.534;9.196;2023-05-20T00:13:59;11.10;13.10
12845;DHT22;68700;48.534;9.196;2023-05-20T00:17:21;11.20;10.80
12845;DHT22;68700;48.534;9.196;2023-05-20T00:20:43;11.10;11.20
12845;DHT22;68700;48.534;9.196;2023-05-20T00:24:06;11.10;18.40
12845;DHT22;68700;48.534;9.196;2023-05-20T00:27:28;11.10;18.30
12845;DHT22;68700;48.534;9.196;2023-05-20T00:30:50;11.20;42.90
12845;DHT22;68700;48.534;9.196;2023-05-20T00:34:12;11.20;16.60
12845;DHT22;68700;48.534;9.196;2023-05-20T00:37:34;11.20;14.30
12845;DHT22;68700;48.534;9.196;2023-05-20T00:40:57;11.20;9.40
12845;DHT22;68700;48.534;9.196;2023-05-20T00:44:19;11.20;11.10
12845;DHT22;68700;48.534;9.196;2023-05-20T00:47:43;11.10;8.50
12845;DHT22;68700;48.534;9.196;2023-05-20T00:51:05;11.10;9.90
12845;DHT22;68700;48.534;9.196;2023-05-20T00:54:27;11.10;14.20
12845;DHT22;68700;48.534;9.196;2023-05-20T00:57:51;11.10;10.00
12845;DHT22;68700;48.534;9.196;2023-05-20T01:01:13;11.10;8.40
12845;DHT22;68700;48.534;9.196;2023-05-20T01:04:35;11.10;19.30
12845;DHT22;68700;48.534;9.196;2023-05-20T01:07:57;11.00;12.30
12845;DHT22;68700;48.534;9.196;2023-05-20T01:11:24;11.00;29.70
12845;DHT22;68700;48.534;9.196;2023-05-20T01:14:49;11.00;50.20
12845;DHT22;68700;48.534;9.196;2023-05-20T01:18:16;11.00;59.70
12845;DHT22;68700;48.534;9.196;2023-05-20T01:21:40;11.00;59.60
12845;DHT22;68700;48.534;9.196;2023-05-20T01:25:05;11.00;59.30
12845;DHT22;68700;48.534;9.196;2023-05-20T01:28:27;11.00;66.60
12845;DHT22;68700;48.534;9.196;2023-05-20T01:31:51;11.00;65.30
12845;DHT22;68700;48.534;9.196;2023-05-20T01:35:15;11.00;65.10
12845;DHT22;68700;48.534;9.196;2023-05-20T01:38:37;11.00;58.30
12845;DHT22;68700;48.534;9.196;2023-05-20T01:42:01;11.00;63.00
12845;DHT22;68700;48.534;9.196;2023-05-20T01:45:24;11.00;67.20
12845;DHT22;68700;48.534;9.196;2023-05-20T01:48:46;11.00;69.50
12845;DHT22;68700;48.534;9.196;2023-05-20T01:52:08;10.90;70.30
12845;DHT22;68700;48.534;9.196;2023-05-20T01:55:30;10.90;77.60
12845;DHT22;68700;48.534;9.196;2023-05-20T01:58:53;10.90;72.40
12845;DHT22;68700;48.534;9.196;2023-05-20T02:02:15;10.90;80.20
12845;DHT22;68700;48.534;9.196;2023-05-20T02:05:37;10.80;84.80
12845;DHT22;68700;48.534;9.196;2023-05-20T02:08:59;10.80;86.90
12845;DHT22;68700;48.534;9.196;2023-05-20T02:12:21;10.80;85.90
12845;DHT22;68700;48.534;9.196;2023-05-20T02:15:44;10.70;64.70
12845;DHT22;68700;48.534;9.196;2023-05-20T02:19:06;10.60;69.50
12845;DHT22;68700;48.534;9.196;2023-05-20T02:22:32;10.70;73.70
12845;DHT22;68700;48.534;9.196;2023-05-20T02:25:54;10.60;87.40
12845;DHT22;68700;48.534;9.196;2023-05-20T02:29:15;10.60;96.30
12845;DHT22;68700;48.534;9.196;2023-05-20T02:32:39;10.60;99.90
12845;DHT22;68700;48.534;9.196;2023-05-20T02:36:00;10.60;99.90
12845;DHT22;68700;48.534;9.196;2023-05-20T02:39:22;10.50;99.90
12845;DHT22;68700;48.534;9.196;2023-05-20T02:42:44;10.50;99.90
12845;DHT22;68700;48.534;9.196;2023-05-20T02:46:07;10.40;96.00
12845;DHT22;68700;48.534;9.196;2023-05-20T02:49:30;10.30;97.30
12845;DHT22;68700;48.534;9.196;2023-05-20T02:52:52;10.20;92.90
12845;DHT22;68700;48.534;9.196;2023-05-20T02:56:13;10.10;76.90
12845;DHT22;68700;48.534;9.196;2023-05-20T02:59:35;9.90;78.30
12845;DHT22;68700;48.534;9.196;2023-05-20T03:02:57;9.80;91.40
12845;DHT22;68700;48.534;9.196;2023-05-20T03:06:21;9.80;95.20
12845;DHT22;68700;48.534;9.196;2023-05-20T03:09:43;9.80;99.90
12845;DHT22;68700;48.534;9.196;2023-05-20T03:13:05;9.70;99.90
12845;DHT22;68700;48.534;9.196;2023-05-20T03:16:28;9.70;99.90
12845;DHT22;68700;48.534;9.196;2023-05-20T03:19:50;9.70;99.90
12845;DHT22;68700;48.534;9.196;2023-05-20T03:23:13;9.70;99.90
12845;DHT22;68700;48.534;9.196;2023-05-20T03:26:35;9.80;99.90
12845;DHT22;68700;48.534;9.196;2023-05-20T03:30:02;9.90;99.90
12845;DHT22;68700;48.534;9.196;2023-05-20T03:33:27;10.00;99.90
12845;DHT22;68700;48.534;9.196;2023-05-20T03:36:50;10.00;99.90
12845;DHT22;68700;48.534;9.196;2023-05-20T03:40:13;10.10;99.90
12845;DHT22;68700;48.534;9.196;2023-05-20T03:43:35;10.10;99.90
12845;DHT22;68700;48.534;9.196;2023-05-20T03:46:57;10.10;99.90
12845;DHT22;68700;48.534;9.196;2023-05-20T03:50:19;10.20;99.90
12845;DHT22;68700;48.534;9.196;2023-05-20T03:53:40;10.20;99.90
12845;DHT22;68700;48.534;9.196;2023-05-20T03:57:04;10.20;99.90
12845;DHT22;68700;48.534;9.196;2023-05-20T04:00:26;10.20;99.90
12845;DHT22;68700;48.534;9.196;2023-05-20T04:03:50;10.20;99.90
12845;DHT22;68700;48.534;9.196;2023-05-20T04:07:12;10.30;99.90
12845;DHT22;68700;48.534;9.196;2023-05-20T04:10:34;10.30;99.90
12845;DHT22;68700;48.534;9.196;2023-05-20T04:13:57;10.40;99.90
12845;DHT22;68700;48.534;9.196;2023-05-20T04:17:19;10.50;99.90
12845;DHT22;68700;48.534;9.196;2023-05-20T04:20:41;10.60;99.90
12845;DHT22;68700;48.534;9.196;2023-05-20T04:24:03;10.60;99.90
12845;DHT22;68700;48.534;9.196;2023-05-20T04:27:26;10.70;99.90
12845;DHT22;68700;48.534;9.196;2023-05-20T04:30:57;10.60;99.90
12845;DHT22;68700;48.534;9.196;2023-05-20T04:34:19;10.70;99.90
12845;DHT22;68700;48.534;9.196;2023-05-20T04:37:46;10.80;99.90
12845;DHT22;68700;48.534;9.196;2023-05-20T04:41:08;10.90;99.90
12845;DHT22;68700;48.534;9.196;2023-05-20T04:44:30;11.00;99.90
12845;DHT22;68700;48.534;9.196;2023-05-20T04:47:53;11.10;99.90
12845;DHT22;68700;48.534;9.196;2023-05-20T04:51:15;11.20;99.90
12845;DHT22;68700;48.534;9.196;2023-05-20T04:54:37;11.20;99.90
12845;DHT22;68700;48.534;9.196;2023-05-20T04:57:59;11.30;99.90
12845;DHT22;68700;48.534;9.196;2023-05-20T05:01:21;11.40;84.70
12845;DHT22;68700;48.534;9.196;2023-05-20T05:04:44;11.40;79.60
12845;DHT22;68700;48.534;9.196;2023-05-20T05:08:06;11.50;74.70
12845;DHT22;68700;48.534;9.196;2023-05-20T05:11:29;11.60;57.70
12845;DHT22;68700;48.534;9.196;2023-05-20T05:14:50;11.70;58.20
12845;DHT22;68700;48.534;9.196;2023-05-20T05:18:12;11.80;52.10
12845;DHT22;68700;48.534;9.196;2023-05-20T05:21:39;11.90;43.80
12845;DHT22;68700;48.534;9.196;2023-05-20T05:25:01;12.00;21.10
12845;DHT22;68700;48.534;9.196;2023-05-20T05:28:23;11.90;1.00
12845;DHT22;68700;48.534;9.196;2023-05-20T05:31:45;12.00;1.00
12845;DHT22;68700;48.534;9.196;2023-05-20T05:35:08;12.00;1.00
12845;DHT22;68700;48.534;9.196;2023-05-20T05:38:31;12.20;1.00
12845;DHT22;68700;48.534;9.196;2023-05-20T05:41:53;12.10;1.00
12845;DHT22;68700;48.534;9.196;2023-05-20T05:45:15;12.20;1.00
12845;DHT22;68700;48.534;9.196;2023-05-20T05:48:37;12.40;1.00
12845;DHT22;68700;48.534;9.196;2023-05-20T05:51:59;12.50;1.00
12845;DHT22;68700;48.534;9.196;2023-05-20T05:55:22;12.50;1.00
12845;DHT22;68700;48.534;9.196;2023-05-20T05:58:44;12.60;1.00
12845;DHT22;68700;48.534;9.196;2023-05-20T06:02:07;12.80;1.00
12845;DHT22;68700;48.534;9.196;2023-05-20T06:05:30;12.90;1.00
12845;DHT22;68700;48.534;9.196;2023-05-20T06:08:52;13.10;1.00
12845;DHT22;68700;48.534;9.196;2023-05-20T06:12:16;13.30;1.00
12845;DHT22;68700;48.534;9.196;2023-05-20T06:15:39;13.30;1.00
12845;DHT22;68700;48.534;9.196;2023-05-20T06:19:01;13.40;1.00
12845;DHT22;68700;48.534;9.196;2023-05-20T06:22:24;13.60;1.00
12845;DHT22;68700;48.534;9.196;2023-05-20T06:25:46;13.70;1.00
12845;DHT22;68700;48.534;9.196;2023-05-20T06:29:10;13.80;1.00
12845;DHT22;68700;48.534;9.196;2023-05-20T06:32:31;14.40;1.00
12845;DHT22;68700;48.534;9.196;2023-05-20T06:35:54;14.50;1.00
12845;DHT22;68700;48.534;9.196;2023-05-20T06:39:16;14.70;1.00
12845;DHT22;68700;48.534;9.196;2023-05-20T06:42:38;14.70;1.00
12845;DHT22;68700;48.534;9.196;2023-05-20T06:46:01;14.90;1.00
12845;DHT22;68700;48.534;9.196;2023-05-20T06:49:23;15.10;1.00
12845;DHT22;68700;48.534;9.196;2023-05-20T06:52:45;15.20;1.00
12845;DHT22;68700;48.534;9.196;2023-05-20T06:56:07;15.60;1.00
12845;DHT22;68700;48.534;9.196;2023-05-20T06:59:29;15.70;1.00
12845;DHT22;68700;48.534;9.196;2023-05-20T07:02:52;16.20;1.00
12845;DHT22;68700;48.534;9.196;2023-05-20T07:06:14;16.50;1.00
12845;DHT22;68700;48.534;9.196;2023-05-20T07:09:37;16.80;1.00
12845;DHT22;68700;48.534;9.196;2023-05-20T07:12:59;17.00;1.00
12845;DHT22;68700;48.534;9.196;2023-05-20T07:16:21;17.20;1.00
12845;DHT22;68700;48.534;9.196;2023-05-20T07:19:44;17.30;1.00
12845;DHT22;68700;48.534;9.196;2023-05-20T07:23:06;17.10;1.00
12845;DHT22;68700;48.534;9.196;2023-05-20T07:26:28;17.20;1.00
12845;DHT22;68700;48.534;9.196;2023-05-20T07:29:53;18.10;1.00
12845;DHT22;68700;48.534;9.196;2023-05-20T07:33:15;19.20;1.00
12845;DHT22;68700;48.534;9.196;2023-05-20T07:36:39;19.30;1.00
12845;DHT22;68700;48.534;9.196;2023-05-20T07:40:01;19.40;1.00
12845;DHT22;68700;48.534;9.196;2023-05-20T07:43:24;19.60;1.00
12845;DHT22;68700;48.534;9.196;2023-05-20T07:46:47;20.40;1.00
12845;DHT22;68700;48.534;9.196;2023-05-20T07:50:09;20.30;1.00
12845;DHT22;68700;48.534;9.196;2023-05-20T07:53:33;19.80;1.00
12845;DHT22;68700;48.534;9.196;2023-05-20T07:56:54;19.10;1.00
12845;DHT22;68700;48.534;9.196;2023-05-20T08:00:20;19.30;1.00
12845;DHT22;68700;48.534;9.196;2023-05-20T08:03:41;19.40;1.00
12845;DHT22;68700;48.534;9.196;2023-05-20T08:07:04;19.10;1.00
12845;DHT22;68700;48.534;9.196;2023-05-20T08:10:27;18.20;1.00
12845;DHT22;68700;48.534;9.196;2023-05-20T08:13:49;18.30;1.00
12845;DHT22;68700;48.534;9.196;2023-05-20T08:17:10;18.60;1.00
12845;DHT22;68700;48.534;9.196;2023-05-20T08:20:32;18.40;1.00
12845;DHT22;68700;48.534;9.196;2023-05-20T08:23:54;18.20;1.00
12845;DHT22;68700;48.534;9.196;2023-05-20T08:27:18;18.40;1.00
12845;DHT22;68700;48.534;9.196;2023-05-20T08:30:39;18.60;1.00
12845;DHT22;68700;48.534;9.196;2023-05-20T08:34:01;18.30;1.00
12845;DHT22;68700;48.534;9.196;2023-05-20T08:37:24;18.30;1.00
12845;DHT22;68700;48.534;9.196;2023-05-20T08:40:51;19.00;1.00
12845;DHT22;68700;48.534;9.196;2023-05-20T08:44:15;19.40;1.00
12845;DHT22;68700;48.534;9.196;2023-05-20T08:47:40;19.80;1.00
12845;DHT22;68700;48.534;9.196;2023-05-20T08:51:03;20.20;1.00
12845;DHT22;68700;48.534;9.196;2023-05-20T08:54:26;20.20;1.00
12845;DHT22;68700;48.534;9.196;2023-05-20T08:57:53;20.70;1.00
12845;DHT22;68700;48.534;9.196;2023-05-20T09:01:16;20.30;1.00
12845;DHT22;68700;48.534;9.196;2023-05-20T09:04:38;20.70;1.00
12845;DHT22;68700;48.534;9.196;2023-05-20T09:08:06;20.60;1.00
12845;DHT22;68700;48.534;9.196;2023-05-20T09:11:29;20.60;1.00
12845;DHT22;68700;48.534;9.196;2023-05-20T09:14:51;21.10;1.00
12845;DHT22;68700;48.534;9.196;2023-05-20T09:18:14;21.30;1.00
12845;DHT22;68700;48.534;9.196;2023-05-20T09:21:36;21.10;1.00
12845;DHT22;68700;48.534;9.196;2023-05-20T09:24:58;21.50;1.00
12845;DHT22;68700;48.534;9.196;2023-05-20T09:28:22;21.90;1.00
12845;DHT22;68700;48.534;9.196;2023-05-20T09:31:44;22.10;1.00
12845;DHT22;68700;48.534;9.196;2023-05-20T09:35:12;24.00;1.00
12845;DHT22;68700;48.534;9.196;2023-05-20T09:38:37;23.80;1.00
12845;DHT22;68700;48.534;9.196;2023-05-20T09:42:04;23.90;1.00
12845;DHT22;68700;48.534;9.196;2023-05-20T09:45:27;24.60;1.00
12845;DHT22;68700;48.534;9.196;2023-05-20T09:48:49;25.00;1.00
12845;DHT22;68700;48.534;9.196;2023-05-20T09:52:14;25.40;1.00
12845;DHT22;68700;48.534;9.196;2023-05-20T09:55:37;24.30;1.00
12845;DHT22;68700;48.534;9.196;2023-05-20T09:59:00;23.60;1.00
12845;DHT22;68700;48.534;9.196;2023-05-20T10:02:23;22.20;1.00
12845;DHT22;68700;48.534;9.196;2023-05-20T10:05:54;21.90;1.00
12845;DHT22;68700;48.534;9.196;2023-05-20T10:09:31;22.20;1.00
12845;DHT22;68700;48.534;9.196;2023-05-20T10:13:05;22.00;1.00
12845;DHT22;68700;48.534;9.196;2023-05-20T10:16:36;22.90;1.00
12845;DHT22;68700;48.534;9.196;2023-05-20T10:19:59;23.40;1.00
12845;DHT22;68700;48.534;9.196;2023-05-20T10:23:22;23.60;1.00
12845;DHT22;68700;48.534;9.196;2023-05-20T10:26:54;24.30;1.00
12845;DHT22;68700;48.534;9.196;2023-05-20T10:30:17;24.90;1.00
12845;DHT22;68700;48.534;9.196;2023-05-20T10:33:41;25.90;1.00
12845;DHT22;68700;48.534;9.196;2023-05-20T10:37:03;26.10;1.00
12845;DHT22;68700;48.534;9.196;2023-05-20T10:40:25;25.80;1.00
12845;DHT22;68700;48.534;9.196;2023-05-20T10:43:58;25.80;1.00
12845;DHT22;68700;48.534;9.196;2023-05-20T10:47:21;26.20;1.00
12845;DHT22;68700;48.534;9.196;2023-05-20T10:50:43;26.10;1.00
12845;DHT22;68700;48.534;9.196;2023-05-20T10:54:08;25.80;1.00
12845;DHT22;68700;48.534;9.196;2023-05-20T10:57:31;26.60;1.00
12845;DHT22;68700;48.534;9.196;2023-05-20T11:00:56;28.00;1.00
12845;DHT22;68700;48.534;9.196;2023-05-20T11:04:18;27.60;1.00
12845;DHT22;68700;48.534;9.196;2023-05-20T11:07:40;28.20;1.00
12845;DHT22;68700;48.534;9.196;2023-05-20T11:11:02;27.20;1.00
12845;DHT22;68700;48.534;9.196;2023-05-20T11:14:24;26.60;1.00
12845;DHT22;68700;48.534;9.196;2023-05-20T11:17:54;28.30;1.00
12845;DHT22;68700;48.534;9.196;2023-05-20T11:21:17;28.70;1.00
12845;DHT22;68700;48.534;9.196;2023-05-20T11:24:39;28.00;1.00
12845;DHT22;68700;48.534;9.196;2023-05-20T11:28:01;28.20;1.00
12845;DHT22;68700;48.534;9.196;2023-05-20T11:31:24;26.40;99.90
12845;DHT22;68700;48.534;9.196;2023-05-20T11:34:50;27.60;1.00
12845;DHT22;68700;48.534;9.196;2023-05-20T11:38:13;26.20;99.90
12845;DHT22;68700;48.534;9.196;2023-05-20T11:41:35;26.40;99.90
12845;DHT22;68700;48.534;9.196;2023-05-20T11:44:58;26.10;99.90
12845;DHT22;68700;48.534;9.196;2023-05-20T11:48:20;25.00;99.90
12845;DHT22;68700;48.534;9.196;2023-05-20T11:51:44;24.90;1.00
12845;DHT22;68700;48.534;9.196;2023-05-20T11:55:09;25.30;1.00
12845;DHT22;68700;48.534;9.196;2023-05-20T11:58:31;25.20;99.90
12845;DHT22;68700;48.534;9.196;2023-05-20T12:01:53;25.80;1.00
12845;DHT22;68700;48.534;9.196;2023-05-20T12:05:15;26.10;1.00
12845;DHT22;68700;48.534;9.196;2023-05-20T12:08:38;26.90;1.40
12845;DHT22;68700;48.534;9.196;2023-05-20T12:12:00;26.60;99.90
12845;DHT22;68700;48.534;9.196;2023-05-20T12:15:22;25.60;99.90
12845;DHT22;68700;48.534;9.196;2023-05-20T12:18:44;25.40;99.90
12845;DHT22;68700;48.534;9.196;2023-05-20T12:22:06;25.70;1.00
12845;DHT22;68700;48.534;9.196;2023-05-20T12:25:29;26.60;1.00
12845;DHT22;68700;48.534;9.196;2023-05-20T12:28:51;27.40;1.40
12845;DHT22;68700;48.534;9.196;2023-05-20T12:32:12;28.30;1.40
12845;DHT22;68700;48.534;9.196;2023-05-20T12:35:38;27.90;1.00
12845;DHT22;68700;48.534;9.196;2023-05-20T12:39:00;27.80;1.00
12845;DHT22;68700;48.534;9.196;2023-05-20T12:42:23;29.50;1.00
12845;DHT22;68700;48.534;9.196;2023-05-20T12:45:45;27.70;99.90
12845;DHT22;68700;48.534;9.196;2023-05-20T12:49:07;28.90;1.40
12845;DHT22;68700;48.534;9.196;2023-05-20T12:52:29;29.60;1.00
12845;DHT22;68700;48.534;9.196;2023-05-20T12:55:51;29.50;1.00
12845;DHT22;68700;48.534;9.196;2023-05-20T12:59:14;28.90;99.90
12845;DHT22;68700;48.534;9.196;2023-05-20T13:02:36;27.90;99.90
12845;DHT22;68700;48.534;9.196;2023-05-20T13:05:58;27.30;99.90
12845;DHT22;68700;48.534;9.196;2023-05-20T13:09:20;26.40;99.90
12845;DHT22;68700;48.534;9.196;2023-05-20T13:12:42;25.70;99.90
12845;DHT22;68700;48.534;9.196;2023-05-20T13:16:07;25.20;99.90
12845;DHT22;68700;48.534;9.196;2023-05-20T13:19:29;26.30;99.90
12845;DHT22;68700;48.534;9.196;2023-05-20T13:22:51;26.50;99.90
12845;DHT22;68700;48.534;9.196;2023-05-20T13:26:13;26.50;99.90
12845;DHT22;68700;48.534;9.196;2023-05-20T13:29:35;27.30;99.90
12845;DHT22;68700;48.534;9.196;2023-05-20T13:32:58;28.40;1.00
12845;DHT22;68700;48.534;9.196;2023-05-20T13:36:20;29.10;1.40
12845;DHT22;68700;48.534;9.196;2023-05-20T13:39:42;29.50;1.40
12845;DHT22;68700;48.534;9.196;2023-05-20T13:43:04;27.80;99.90
12845;DHT22;68700;48.534;9.196;2023-05-20T13:46:26;28.50;99.90
12845;DHT22;68700;48.534;9.196;2023-05-20T13:49:49;28.60;1.00
12845;DHT22;68700;48.534;9.196;2023-05-20T13:53:17;29.70;99.90
12845;DHT22;68700;48.534;9.196;2023-05-20T13:56:53;29.50;99.90
12845;DHT22;68700;48.534;9.196;2023-05-20T14:00:16;29.30;99.90
12845;DHT22;68700;48.534;9.196;2023-05-20T14:03:38;28.60;99.90
12845;DHT22;68700;48.534;9.196;2023-05-20T14:07:01;29.10;99.90
12845;DHT22;68700;48.534;9.196;2023-05-20T14:10:23;29.00;99.90
12845;DHT22;68700;48.534;9.196;2023-05-20T14:13:45;28.00;99.90
12845;DHT22;68700;48.534;9.196;2023-05-20T14:17:07;27.70;99.90
12845;DHT22;68700;48.534;9.196;2023-05-20T14:20:29;27.10;99.90
12845;DHT22;68700;48.534;9.196;2023-05-20T14:23:52;27.00;99.90
12845;DHT22;68700;48.534;9.196;2023-05-20T14:27:14;26.90;99.90
12845;DHT22;68700;48.534;9.196;2023-05-20T14:30:36;26.90;99.90
12845;DHT22;68700;48.534;9.196;2023-05-20T14:33:58;26.70;99.90
12845;DHT22;68700;48.534;9.196;2023-05-20T14:37:20;26.10;99.90
12845;DHT22;68700;48.534;9.196;2023-05-20T14:40:43;26.20;99.90
12845;DHT22;68700;48.534;9.196;2023-05-20T14:44:05;27.20;99.90
12845;DHT22;68700;48.534;9.196;2023-05-20T14:47:27;27.60;99.90
12845;DHT22;68700;48.534;9.196;2023-05-20T14:50:49;27.00;99.90
12845;DHT22;68700;48.534;9.196;2023-05-20T14:54:11;27.10;99.90
12845;DHT22;68700;48.534;9.196;2023-05-20T14:57:35;27.70;99.90
12845;DHT22;68700;48.534;9.196;2023-05-20T15:00:57;28.50;99.90
12845;DHT22;68700;48.534;9.196;2023-05-20T15:04:18;28.30;99.90
12845;DHT22;68700;48.534;9.196;2023-05-20T15:07:40;28.20;99.90
12845;DHT22;68700;48.534;9.196;2023-05-20T15:11:02;28.10;99.90
12845;DHT22;68700;48.534;9.196;2023-05-20T15:14:26;28.30;99.90
12845;DHT22;68700;48.534;9.196;2023-05-20T15:17:48;29.30;99.90
12845;DHT22;68700;48.534;9.196;2023-05-20T15:21:10;30.20;99.90
12845;DHT22;68700;48.534;9.196;2023-05-20T15:24:32;30.60;99.90
12845;DHT22;68700;48.534;9.196;2023-05-20T15:27:54;30.00;1.00
12845;DHT22;68700;48.534;9.196;2023-05-20T15:31:17;29.20;99.90
12845;DHT22;68700;48.534;9.196;2023-05-20T15:34:39;28.70;99.90
12845;DHT22;68700;48.534;9.196;2023-05-20T15:38:01;28.70;99.90
12845;DHT22;68700;48.534;9.196;2023-05-20T15:41:22;28.40;99.90
12845;DHT22;68700;48.534;9.196;2023-05-20T15:44:45;29.10;99.90
12845;DHT22;68700;48.534;9.196;2023-05-20T15:48:08;28.90;99.90
12845;DHT22;68700;48.534;9.196;2023-05-20T15:51:30;29.50;99.90
12845;DHT22;68700;48.534;9.196;2023-05-20T15:54:52;29.30;99.90
12845;DHT22;68700;48.534;9.196;2023-05-20T15:58:15;29.20;99.90
12845;DHT22;68700;48.534;9.196;2023-05-20T16:01:37;29.10;99.90
12845;DHT22;68700;48.534;9.196;2023-05-20T16:05:00;28.90;99.90
12845;DHT22;68700;48.534;9.196;2023-05-20T16:08:22;29.30;99.90
12845;DHT22;68700;48.534;9.196;2023-05-20T16:11:44;29.40;99.90
12845;DHT22;68700;48.534;9.196;2023-05-20T16:15:09;29.60;99.90
12845;DHT22;68700;48.534;9.196;2023-05-20T16:18:31;29.80;99.90
12845;DHT22;68700;48.534;9.196;2023-05-20T16:21:55;30.00;99.90
12845;DHT22;68700;48.534;9.196;2023-05-20T16:25:16;29.70;99.90
12845;DHT22;68700;48.534;9.196;2023-05-20T16:28:38;29.40;99.90
12845;DHT22;68700;48.534;9.196;2023-05-20T16:32:00;29.90;99.90
12845;DHT22;68700;48.534;9.196;2023-05-20T16:35:22;30.20;99.90
12845;DHT22;68700;48.534;9.196;2023-05-20T16:38:45;29.80;99.90
12845;DHT22;68700;48.534;9.196;2023-05-20T16:42:07;29.10;99.90
12845;DHT22;68700;48.534;9.196;2023-05-20T16:45:29;28.70;99.90
12845;DHT22;68700;48.534;9.196;2023-05-20T16:48:51;28.20;99.90
12845;DHT22;68700;48.534;9.196;2023-05-20T16:52:13;28.20;99.90
12845;DHT22;68700;48.534;9.196;2023-05-20T16:55:36;27.60;99.90
12845;DHT22;68700;48.534;9.196;2023-05-20T16:58:58;27.40;99.90
12845;DHT22;68700;48.534;9.196;2023-05-20T17:02:19;27.00;99.90
12845;DHT22;68700;48.534;9.196;2023-05-20T17:05:41;27.10;99.90
12845;DHT22;68700;48.534;9.196;2023-05-20T17:09:04;27.10;99.90
12845;DHT22;68700;48.534;9.196;2023-05-20T17:12:27;27.10;99.90
12845;DHT22;68700;48.534;9.196;2023-05-20T17:15:49;27.10;99.90
12845;DHT22;68700;48.534;9.196;2023-05-20T17:19:11;26.80;99.90
12845;DHT22;68700;48.534;9.196;2023-05-20T17:22:33;27.00;99.90
12845;DHT22;68700;48.534;9.196;2023-05-20T17:25:55;27.20;99.90
12845;DHT22;68700;48.534;9.196;2023-05-20T17:29:18;27.10;99.90
12845;DHT22;68700;48.534;9.196;2023-05-20T17:32:40;26.80;99.90
12845;DHT22;68700;48.534;9.196;2023-05-20T17:36:02;26.40;99.90
12845;DHT22;68700;48.534;9.196;2023-05-20T17:39:24;26.40;99.90
12845;DHT22;68700;48.534;9.196;2023-05-20T17:42:46;26.40;99.90
12845;DHT22;68700;48.534;9.196;2023-05-20T17:46:10;26.50;99.90
12845;DHT22;68700;48.534;9.196;2023-05-20T17:49:32;26.40;99.90
12845;DHT22;68700;48.534;9.196;2023-05-20T17:52:53;26.00;99.90
12845;DHT22;68700;48.534;9.196;2023-05-20T17:56:15;25.60;99.90
12845;DHT22;68700;48.534;9.196;2023-05-20T17:59:37;25.40;99.90
12845;DHT22;68700;48.534;9.196;2023-05-20T18:03:02;25.10;99.90
12845;DHT22;68700;48.534;9.196;2023-05-20T18:06:25;25.00;99.90
12845;DHT22;68700;48.534;9.196;2023-05-20T18:09:47;24.90;99.90
12845;DHT22;68700;48.534;9.196;2023-05-20T18:13:09;24.90;99.90
12845;DHT22;68700;48.534;9.196;2023-05-20T18:16:30;24.70;99.90
12845;DHT22;68700;48.534;9.196;2023-05-20T18:19:54;24.60;99.90
12845;DHT22;68700;48.534;9.196;2023-05-20T18:23:15;24.60;99.90
12845;DHT22;68700;48.534;9.196;2023-05-20T18:26:37;24.50;99.90
12845;DHT22;68700;48.534;9.196;2023-05-20T18:29:59;24.50;99.90
12845;DHT22;68700;48.534;9.196;2023-05-20T18:33:21;24.80;99.90
12845;DHT22;68700;48.534;9.196;2023-05-20T18:36:45;24.70;99.90
12845;DHT22;68700;48.534;9.196;2023-05-20T18:40:08;24.30;99.90
12845;DHT22;68700;48.534;9.196;2023-05-20T18:43:30;24.10;99.90
12845;DHT22;68700;48.534;9.196;2023-05-20T18:46:51;24.00;99.90
12845;DHT22;68700;48.534;9.196;2023-05-20T18:50:13;23.90;99.90
12845;DHT22;68700;48.534;9.196;2023-05-20T18:53:37;23.80;99.90
12845;DHT22;68700;48.534;9.196;2023-05-20T18:56:59;23.80;99.90
12845;DHT22;68700;48.534;9.196;2023-05-20T19:00:24;23.90;99.90
12845;DHT22;68700;48.534;9.196;2023-05-20T19:03:46;24.00;99.90
12845;DHT22;68700;48.534;9.196;2023-05-20T19:07:09;23.60;99.90
12845;DHT22;68700;48.534;9.196;2023-05-20T19:10:32;23.30;99.90
12845;DHT22;68700;48.534;9.196;2023-05-20T19:13:54;23.30;99.90
12845;DHT22;68700;48.534;9.196;2023-05-20T19:17:17;23.10;99.90
12845;DHT22;68700;48.534;9.196;2023-05-20T19:20:39;23.10;1.40
12845;DHT22;68700;48.534;9.196;2023-05-20T19:24:01;22.70;1.40
12845;DHT22;68700;48.534;9.196;2023-05-20T19:27:24;22.80;1.00
12845;DHT22;68700;48.534;9.196;2023-05-20T19:30:46;22.70;1.00
12845;DHT22;68700;48.534;9.196;2023-05-20T19:34:08;22.70;1.00
12845;DHT22;68700;48.534;9.196;2023-05-20T19:37:30;22.90;1.00
12845;DHT22;68700;48.534;9.196;2023-05-20T19:40:52;23.00;1.00
12845;DHT22;68700;48.534;9.196;2023-05-20T19:44:15;23.00;1.00
12845;DHT22;68700;48.534;9.196;2023-05-20T19:47:38;22.80;1.00
12845;DHT22;68700;48.534;9.196;2023-05-20T19:51:00;22.60;1.00
12845;DHT22;68700;48.534;9.196;2023-05-20T19:54:22;22.40;1.00
12845;DHT22;68700;48.534;9.196;2023-05-20T19:57:44;22.00;1.00
12845;DHT22;68700;48.534;9.196;2023-05-20T20:01:13;21.90;1.00
12845;DHT22;68700;48.534;9.196;2023-05-20T20:04:36;21.90;1.00
12845;DHT22;68700;48.534;9.196;2023-05-20T20:07:58;22.20;1.00
12845;DHT22;68700;48.534;9.196;2023-05-20T20:11:20;22.20;1.00
12845;DHT22;68700;48.534;9.196;2023-05-20T20:14:43;22.20;1.00
12845;DHT22;68700;48.534;9.196;2023-05-20T20:18:06;21.90;1.00
12845;DHT22;68700;48.534;9.196;2023-05-20T20:21:28;21.60;1.00
12845;DHT22;68700;48.534;9.196;2023-05-20T20:24:50;21.20;1.00
12845;DHT22;68700;48.534;9.196;2023-05-20T20:28:11;20.90;1.00
12845;DHT22;68700;48.534;9.196;2023-05-20T20:31:33;20.90;1.00
12845;DHT22;68700;48.534;9.196;2023-05-20T20:34:57;21.20;1.00
12845;DHT22;68700;48.534;9.196;2023-05-20T20:38:19;21.40;1.00
12845;DHT22;68700;48.534;9.196;2023-05-20T20:41:40;21.30;1.00
12845;DHT22;68700;48.534;9.196;2023-05-20T20:45:05;21.20;1.00
12845;DHT22;68700;48.534;9.196;2023-05-20T20:48:27;21.10;1.00
12845;DHT22;68700;48.534;9.196;2023-05-20T20:51:51;21.10;1.00
12845;DHT22;68700;48.534;9.196;2023-05-20T20:55:13;21.50;1.00
12845;DHT22;68700;48.534;9.196;2023-05-20T20:58:36;21.80;1.00
12845;DHT22;68700;48.534;9.196;2023-05-20T21:01:58;21.40;1.00
12845;DHT22;68700;48.534;9.196;2023-05-20T21:05:20;21.40;1.00
12845;DHT22;68700;48.534;9.196;2023-05-20T21:08:47;21.30;1.00
12845;DHT22;68700;48.534;9.196;2023-05-20T21:12:09;20.90;1.00
12845;DHT22;68700;48.534;9.196;2023-05-20T21:15:31;20.70;1.00
12845;DHT22;68700;48.534;9.196;2023-05-20T21:18:52;20.40;1.00
12845;DHT22;68700;48.534;9.196;2023-05-20T21:22:14;20.20;1.00
12845;DHT22;68700;48.534;9.196;2023-05-20T21:25:37;20.00;1.00
12845;DHT22;68700;48.534;9.196;2023-05-20T21:28:59;19.70;1.00